sensor_id;sensor_type;location;lat;lon;timestamp;P1;durP1;ratioP1;P2;durP2;ratioP2
35120;SDS011;21297;52.008;4.576;2024-02-14T00:00:31;24.38;;;17.67;;
35120;SDS011;21297;52.008;4.576;2024-02-14T00:03:17;24.52;;;18.90;;
35120;SDS011;21297;52.008;4.576;2024-02-14T00:06:03;26.73;;;18.10;;
35120;SDS011;21297;52.008;4.576;2024-02-14T00:08:49;30.02;;;20.65;;
35120;SDS011;21297;52.008;4.576;2024-02-14T00:11:35;29.30;;;23.25;;
35120;SDS011;21297;52.008;4.576;2024-02-14T00:14:20;30.15;;;20.88;;
35120;SDS011;21297;52.008;4.576;2024-02-14T00:17:06;27.10;;;20.77;;
35120;SDS011;21297;52.008;4.576;2024-02-14T00:19:52;30.15;;;20.83;;
35120;SDS011;21297;52.008;4.576;2024-02-14T00:22:38;29.65;;;22.15;;
35120;SDS011;21297;52.008;4.576;2024-02-14T00:25:24;29.65;;;21.33;;
35120;SDS011;21297;52.008;4.576;2024-02-14T00:28:10;29.75;;;22.52;;
35120;SDS011;21297;52.008;4.576;2024-02-14T00:30:55;32.95;;;22.40;;
35120;SDS011;21297;52.008;4.576;2024-02-14T00:33:41;27.27;;;18.65;;
35120;SDS011;21297;52.008;4.576;2024-02-14T00:36:27;27.55;;;19.38;;
35120;SDS011;21297;52.008;4.576;2024-02-14T00:39:13;28.92;;;21.20;;
35120;SDS011;21297;52.008;4.576;2024-02-14T00:41:58;28.33;;;20.48;;
35120;SDS011;21297;52.008;4.576;2024-02-14T00:44:44;31.10;;;21.55;;
35120;SDS011;21297;52.008;4.576;2024-02-14T00:47:32;29.08;;;20.92;;
35120;SDS011;21297;52.008;4.576;2024-02-14T00:50:18;28.00;;;21.35;;
35120;SDS011;21297;52.008;4.576;2024-02-14T00:53:03;33.65;;;22.30;;
35120;SDS011;21297;52.008;4.576;2024-02-14T00:55:49;28.42;;;21.95;;
35120;SDS011;21297;52.008;4.576;2024-02-14T00:58:35;28.98;;;21.60;;
35120;SDS011;21297;52.008;4.576;2024-02-14T01:01:20;33.58;;;22.65;;
35120;SDS011;21297;52.008;4.576;2024-02-14T01:04:06;32.25;;;23.20;;
35120;SDS011;21297;52.008;4.576;2024-02-14T01:06:52;34.60;;;23.05;;
35120;SDS011;21297;52.008;4.576;2024-02-14T01:09:38;31.65;;;23.10;;
35120;SDS011;21297;52.008;4.576;2024-02-14T01:12:24;32.30;;;22.08;;
35120;SDS011;21297;52.008;4.576;2024-02-14T01:15:09;28.10;;;20.00;;
35120;SDS011;21297;52.008;4.576;2024-02-14T01:17:55;30.45;;;20.38;;
35120;SDS011;21297;52.008;4.576;2024-02-14T01:20:41;29.42;;;20.55;;
35120;SDS011;21297;52.008;4.576;2024-02-14T01:23:27;26.45;;;20.50;;
35120;SDS011;21297;52.008;4.576;2024-02-14T01:26:12;30.30;;;19.75;;
35120;SDS011;21297;52.008;4.576;2024-02-14T01:28:58;28.88;;;20.13;;
35120;SDS011;21297;52.008;4.576;2024-02-14T01:31:46;27.05;;;18.55;;
35120;SDS011;21297;52.008;4.576;2024-02-14T01:34:32;28.17;;;19.20;;
35120;SDS011;21297;52.008;4.576;2024-02-14T01:37:18;27.02;;;19.17;;
35120;SDS011;21297;52.008;4.576;2024-02-14T01:40:06;27.02;;;18.45;;
35120;SDS011;21297;52.008;4.576;2024-02-14T01:42:53;28.33;;;18.55;;
35120;SDS011;21297;52.008;4.576;2024-02-14T01:45:39;27.50;;;18.10;;
35120;SDS011;21297;52.008;4.576;2024-02-14T01:48:24;25.02;;;17.35;;
35120;SDS011;21297;52.008;4.576;2024-02-14T01:51:11;28.85;;;17.92;;
35120;SDS011;21297;52.008;4.576;2024-02-14T01:53:58;21.52;;;16.25;;
35120;SDS011;21297;52.008;4.576;2024-02-14T01:56:44;25.50;;;16.85;;
35120;SDS011;21297;52.008;4.576;2024-02-14T01:59:30;24.42;;;15.65;;
35120;SDS011;21297;52.008;4.576;2024-02-14T02:02:16;22.55;;;14.77;;
35120;SDS011;21297;52.008;4.576;2024-02-14T02:05:02;21.27;;;13.77;;
35120;SDS011;21297;52.008;4.576;2024-02-14T02:07:48;21.00;;;14.15;;
35120;SDS011;21297;52.008;4.576;2024-02-14T02:10:35;22.65;;;15.13;;
35120;SDS011;21297;52.008;4.576;2024-02-14T02:13:21;21.02;;;13.35;;
35120;SDS011;21297;52.008;4.576;2024-02-14T02:16:06;19.63;;;13.63;;
35120;SDS011;21297;52.008;4.576;2024-02-14T02:18:53;23.67;;;14.55;;
35120;SDS011;21297;52.008;4.576;2024-02-14T02:21:39;22.20;;;14.85;;
35120;SDS011;21297;52.008;4.576;2024-02-14T02:24:28;23.52;;;16.08;;
35120;SDS011;21297;52.008;4.576;2024-02-14T02:27:13;21.52;;;16.10;;
35120;SDS011;21297;52.008;4.576;2024-02-14T02:30:01;24.13;;;16.70;;
35120;SDS011;21297;52.008;4.576;2024-02-14T02:32:47;23.30;;;17.30;;
35120;SDS011;21297;52.008;4.576;2024-02-14T02:35:33;28.92;;;20.63;;
35120;SDS011;21297;52.008;4.576;2024-02-14T02:38:19;32.22;;;22.70;;
35120;SDS011;21297;52.008;4.576;2024-02-14T02:41:07;34.13;;;22.45;;
35120;SDS011;21297;52.008;4.576;2024-02-14T02:43:53;35.05;;;24.55;;
35120;SDS011;21297;52.008;4.576;2024-02-14T02:46:39;36.47;;;25.67;;
35120;SDS011;21297;52.008;4.576;2024-02-14T02:49:25;36.78;;;25.58;;
35120;SDS011;21297;52.008;4.576;2024-02-14T02:52:11;36.35;;;26.63;;
35120;SDS011;21297;52.008;4.576;2024-02-14T02:54:57;36.10;;;24.58;;
35120;SDS011;21297;52.008;4.576;2024-02-14T02:57:43;42.50;;;26.50;;
35120;SDS011;21297;52.008;4.576;2024-02-14T03:00:30;38.38;;;26.30;;
35120;SDS011;21297;52.008;4.576;2024-02-14T03:03:16;34.72;;;24.58;;
35120;SDS011;21297;52.008;4.576;2024-02-14T03:06:03;35.03;;;23.67;;
35120;SDS011;21297;52.008;4.576;2024-02-14T03:08:49;44.63;;;22.40;;
35120;SDS011;21297;52.008;4.576;2024-02-14T03:11:35;30.90;;;19.80;;
35120;SDS011;21297;52.008;4.576;2024-02-14T03:14:22;42.85;;;22.15;;
35120;SDS011;21297;52.008;4.576;2024-02-14T03:17:08;35.50;;;18.13;;
35120;SDS011;21297;52.008;4.576;2024-02-14T03:19:55;34.35;;;19.17;;
35120;SDS011;21297;52.008;4.576;2024-02-14T03:22:42;34.05;;;17.42;;
35120;SDS011;21297;52.008;4.576;2024-02-14T03:25:30;46.15;;;19.13;;
35120;SDS011;21297;52.008;4.576;2024-02-14T03:28:15;40.60;;;19.25;;
35120;SDS011;21297;52.008;4.576;2024-02-14T03:31:01;37.63;;;16.88;;
35120;SDS011;21297;52.008;4.576;2024-02-14T03:33:47;41.28;;;17.77;;
35120;SDS011;21297;52.008;4.576;2024-02-14T03:36:32;39.50;;;18.20;;
35120;SDS011;21297;52.008;4.576;2024-02-14T03:39:18;31.63;;;16.27;;
35120;SDS011;21297;52.008;4.576;2024-02-14T03:42:04;33.45;;;16.02;;
35120;SDS011;21297;52.008;4.576;2024-02-14T03:44:52;32.55;;;15.10;;
35120;SDS011;21297;52.008;4.576;2024-02-14T03:47:40;37.95;;;14.77;;
35120;SDS011;21297;52.008;4.576;2024-02-14T03:50:27;33.22;;;14.38;;
35120;SDS011;21297;52.008;4.576;2024-02-14T03:53:12;33.92;;;13.80;;
35120;SDS011;21297;52.008;4.576;2024-02-14T03:56:00;32.67;;;14.00;;
35120;SDS011;21297;52.008;4.576;2024-02-14T03:58:46;32.53;;;12.52;;
35120;SDS011;21297;52.008;4.576;2024-02-14T04:01:32;30.73;;;13.00;;
35120;SDS011;21297;52.008;4.576;2024-02-14T04:04:18;30.95;;;13.00;;
35120;SDS011;21297;52.008;4.576;2024-02-14T04:07:04;35.85;;;12.60;;
35120;SDS011;21297;52.008;4.576;2024-02-14T04:09:50;32.53;;;13.25;;
35120;SDS011;21297;52.008;4.576;2024-02-14T04:12:36;32.15;;;13.30;;
35120;SDS011;21297;52.008;4.576;2024-02-14T04:15:21;27.55;;;12.85;;
35120;SDS011;21297;52.008;4.576;2024-02-14T04:18:07;37.22;;;13.50;;
35120;SDS011;21297;52.008;4.576;2024-02-14T04:20:52;34.40;;;13.90;;
35120;SDS011;21297;52.008;4.576;2024-02-14T04:23:38;31.73;;;13.57;;
35120;SDS011;21297;52.008;4.576;2024-02-14T04:26:25;32.53;;;13.98;;
35120;SDS011;21297;52.008;4.576;2024-02-14T04:29:12;37.30;;;16.15;;
35120;SDS011;21297;52.008;4.576;2024-02-14T04:31:57;34.83;;;14.80;;
35120;SDS011;21297;52.008;4.576;2024-02-14T04:34:43;33.33;;;14.88;;
35120;SDS011;21297;52.008;4.576;2024-02-14T04:37:29;31.40;;;14.32;;
35120;SDS011;21297;52.008;4.576;2024-02-14T04:40:15;37.25;;;14.70;;
35120;SDS011;21297;52.008;4.576;2024-02-14T04:43:00;36.08;;;15.00;;
35120;SDS011;21297;52.008;4.576;2024-02-14T04:45:46;43.83;;;18.35;;
35120;SDS011;21297;52.008;4.576;2024-02-14T04:48:33;35.80;;;16.42;;
35120;SDS011;21297;52.008;4.576;2024-02-14T04:51:18;32.15;;;15.20;;
35120;SDS011;21297;52.008;4.576;2024-02-14T04:54:04;36.80;;;15.82;;
35120;SDS011;21297;52.008;4.576;2024-02-14T04:56:51;31.38;;;14.60;;
35120;SDS011;21297;52.008;4.576;2024-02-14T04:59:36;34.88;;;15.57;;
35120;SDS011;21297;52.008;4.576;2024-02-14T05:02:22;27.63;;;14.38;;
35120;SDS011;21297;52.008;4.576;2024-02-14T05:05:08;28.58;;;14.65;;
35120;SDS011;21297;52.008;4.576;2024-02-14T05:07:53;24.75;;;14.00;;
35120;SDS011;21297;52.008;4.576;2024-02-14T05:10:39;29.55;;;13.70;;
35120;SDS011;21297;52.008;4.576;2024-02-14T05:13:25;26.40;;;13.02;;
35120;SDS011;21297;52.008;4.576;2024-02-14T05:16:11;24.45;;;12.48;;
35120;SDS011;21297;52.008;4.576;2024-02-14T05:18:57;29.33;;;12.88;;
35120;SDS011;21297;52.008;4.576;2024-02-14T05:21:42;25.80;;;12.25;;
35120;SDS011;21297;52.008;4.576;2024-02-14T05:24:28;24.48;;;11.35;;
35120;SDS011;21297;52.008;4.576;2024-02-14T05:27:14;27.15;;;12.18;;
35120;SDS011;21297;52.008;4.576;2024-02-14T05:30:00;19.27;;;10.45;;
35120;SDS011;21297;52.008;4.576;2024-02-14T05:32:46;21.10;;;11.13;;
35120;SDS011;21297;52.008;4.576;2024-02-14T05:35:31;23.58;;;11.30;;
35120;SDS011;21297;52.008;4.576;2024-02-14T05:38:17;20.02;;;10.85;;
35120;SDS011;21297;52.008;4.576;2024-02-14T05:41:04;23.58;;;11.95;;
35120;SDS011;21297;52.008;4.576;2024-02-14T05:43:53;24.55;;;13.60;;
35120;SDS011;21297;52.008;4.576;2024-02-14T05:46:38;26.77;;;13.63;;
35120;SDS011;21297;52.008;4.576;2024-02-14T05:49:24;25.00;;;14.40;;
35120;SDS011;21297;52.008;4.576;2024-02-14T05:52:10;30.45;;;15.50;;
35120;SDS011;21297;52.008;4.576;2024-02-14T05:54:55;30.05;;;17.80;;
35120;SDS011;21297;52.008;4.576;2024-02-14T05:57:41;41.55;;;17.95;;
35120;SDS011;21297;52.008;4.576;2024-02-14T06:00:27;33.05;;;20.52;;
35120;SDS011;21297;52.008;4.576;2024-02-14T06:03:12;38.70;;;22.15;;
35120;SDS011;21297;52.008;4.576;2024-02-14T06:05:58;39.35;;;24.08;;
35120;SDS011;21297;52.008;4.576;2024-02-14T06:08:44;41.85;;;24.13;;
35120;SDS011;21297;52.008;4.576;2024-02-14T06:11:29;44.42;;;23.90;;
35120;SDS011;21297;52.008;4.576;2024-02-14T06:14:15;43.33;;;24.92;;
35120;SDS011;21297;52.008;4.576;2024-02-14T06:17:01;39.25;;;23.73;;
35120;SDS011;21297;52.008;4.576;2024-02-14T06:19:47;42.00;;;25.08;;
35120;SDS011;21297;52.008;4.576;2024-02-14T06:22:33;42.40;;;25.30;;
35120;SDS011;21297;52.008;4.576;2024-02-14T06:25:18;47.70;;;26.60;;
35120;SDS011;21297;52.008;4.576;2024-02-14T06:28:04;52.10;;;25.52;;
35120;SDS011;21297;52.008;4.576;2024-02-14T06:30:50;46.45;;;28.65;;
35120;SDS011;21297;52.008;4.576;2024-02-14T06:33:36;41.45;;;27.08;;
35120;SDS011;21297;52.008;4.576;2024-02-14T06:36:21;43.28;;;26.92;;
35120;SDS011;21297;52.008;4.576;2024-02-14T06:39:07;44.97;;;27.17;;
35120;SDS011;21297;52.008;4.576;2024-02-14T06:41:53;48.30;;;25.58;;
35120;SDS011;21297;52.008;4.576;2024-02-14T06:44:39;47.55;;;27.08;;
35120;SDS011;21297;52.008;4.576;2024-02-14T06:47:24;43.35;;;26.60;;
35120;SDS011;21297;52.008;4.576;2024-02-14T06:50:15;42.40;;;25.85;;
35120;SDS011;21297;52.008;4.576;2024-02-14T06:53:00;40.33;;;26.00;;
35120;SDS011;21297;52.008;4.576;2024-02-14T06:55:46;42.28;;;25.52;;
35120;SDS011;21297;52.008;4.576;2024-02-14T06:58:32;41.10;;;24.02;;
35120;SDS011;21297;52.008;4.576;2024-02-14T07:01:17;39.95;;;25.02;;
35120;SDS011;21297;52.008;4.576;2024-02-14T07:04:07;38.58;;;24.17;;
35120;SDS011;21297;52.008;4.576;2024-02-14T07:06:52;39.20;;;24.38;;
35120;SDS011;21297;52.008;4.576;2024-02-14T07:09:38;36.17;;;24.50;;
35120;SDS011;21297;52.008;4.576;2024-02-14T07:12:24;36.28;;;24.30;;
35120;SDS011;21297;52.008;4.576;2024-02-14T07:15:11;35.72;;;23.00;;
35120;SDS011;21297;52.008;4.576;2024-02-14T07:17:56;32.78;;;22.52;;
35120;SDS011;21297;52.008;4.576;2024-02-14T07:20:43;31.60;;;20.67;;
35120;SDS011;21297;52.008;4.576;2024-02-14T07:23:29;35.90;;;22.77;;
35120;SDS011;21297;52.008;4.576;2024-02-14T07:26:15;33.83;;;22.65;;
35120;SDS011;21297;52.008;4.576;2024-02-14T07:29:00;30.77;;;21.10;;
35120;SDS011;21297;52.008;4.576;2024-02-14T07:31:48;38.97;;;23.20;;
35120;SDS011;21297;52.008;4.576;2024-02-14T07:34:34;35.22;;;21.92;;
35120;SDS011;21297;52.008;4.576;2024-02-14T07:37:20;34.97;;;22.13;;
35120;SDS011;21297;52.008;4.576;2024-02-14T07:40:05;30.30;;;21.60;;
35120;SDS011;21297;52.008;4.576;2024-02-14T07:42:51;27.58;;;19.13;;
35120;SDS011;21297;52.008;4.576;2024-02-14T07:45:37;29.20;;;19.00;;
35120;SDS011;21297;52.008;4.576;2024-02-14T07:48:23;30.65;;;19.83;;
35120;SDS011;21297;52.008;4.576;2024-02-14T07:51:09;29.13;;;19.27;;
35120;SDS011;21297;52.008;4.576;2024-02-14T07:53:55;31.98;;;20.20;;
35120;SDS011;21297;52.008;4.576;2024-02-14T07:56:40;28.88;;;19.83;;
35120;SDS011;21297;52.008;4.576;2024-02-14T07:59:26;31.75;;;20.00;;
35120;SDS011;21297;52.008;4.576;2024-02-14T08:02:12;30.02;;;20.15;;
35120;SDS011;21297;52.008;4.576;2024-02-14T08:04:59;26.00;;;18.10;;
35120;SDS011;21297;52.008;4.576;2024-02-14T08:07:44;24.20;;;17.63;;
35120;SDS011;21297;52.008;4.576;2024-02-14T08:10:31;26.60;;;17.23;;
35120;SDS011;21297;52.008;4.576;2024-02-14T08:13:17;16.98;;;12.82;;
35120;SDS011;21297;52.008;4.576;2024-02-14T08:16:03;20.05;;;10.82;;
35120;SDS011;21297;52.008;4.576;2024-02-14T08:18:49;15.70;;;10.60;;
35120;SDS011;21297;52.008;4.576;2024-02-14T08:21:36;13.23;;;9.38;;
35120;SDS011;21297;52.008;4.576;2024-02-14T08:24:22;15.35;;;10.70;;
35120;SDS011;21297;52.008;4.576;2024-02-14T08:27:08;14.80;;;10.05;;
35120;SDS011;21297;52.008;4.576;2024-02-14T08:29:54;22.08;;;13.55;;
35120;SDS011;21297;52.008;4.576;2024-02-14T08:32:40;23.85;;;14.57;;
35120;SDS011;21297;52.008;4.576;2024-02-14T08:35:26;21.58;;;15.45;;
35120;SDS011;21297;52.008;4.576;2024-02-14T08:38:11;22.40;;;15.23;;
35120;SDS011;21297;52.008;4.576;2024-02-14T08:40:57;28.75;;;18.42;;
35120;SDS011;21297;52.008;4.576;2024-02-14T08:43:43;26.15;;;18.63;;
35120;SDS011;21297;52.008;4.576;2024-02-14T08:46:28;29.40;;;20.83;;
35120;SDS011;21297;52.008;4.576;2024-02-14T08:49:15;36.38;;;22.40;;
35120;SDS011;21297;52.008;4.576;2024-02-14T08:52:00;37.35;;;23.13;;
35120;SDS011;21297;52.008;4.576;2024-02-14T08:54:46;41.50;;;25.65;;
35120;SDS011;21297;52.008;4.576;2024-02-14T08:57:32;40.40;;;25.88;;
35120;SDS011;21297;52.008;4.576;2024-02-14T09:00:18;36.40;;;24.92;;
35120;SDS011;21297;52.008;4.576;2024-02-14T09:03:07;37.15;;;24.20;;
35120;SDS011;21297;52.008;4.576;2024-02-14T09:05:53;35.13;;;23.00;;
35120;SDS011;21297;52.008;4.576;2024-02-14T09:08:39;31.25;;;21.25;;
35120;SDS011;21297;52.008;4.576;2024-02-14T09:11:25;35.80;;;21.92;;
35120;SDS011;21297;52.008;4.576;2024-02-14T09:14:12;28.98;;;19.23;;
35120;SDS011;21297;52.008;4.576;2024-02-14T09:16:57;25.10;;;17.73;;
35120;SDS011;21297;52.008;4.576;2024-02-14T09:19:43;23.45;;;16.23;;
35120;SDS011;21297;52.008;4.576;2024-02-14T09:22:29;22.23;;;14.30;;
35120;SDS011;21297;52.008;4.576;2024-02-14T09:25:15;23.25;;;15.27;;
35120;SDS011;21297;52.008;4.576;2024-02-14T09:28:00;19.25;;;13.20;;
35120;SDS011;21297;52.008;4.576;2024-02-14T09:30:46;18.52;;;12.75;;
35120;SDS011;21297;52.008;4.576;2024-02-14T09:33:32;20.17;;;13.00;;
35120;SDS011;21297;52.008;4.576;2024-02-14T09:36:17;21.80;;;13.45;;
35120;SDS011;21297;52.008;4.576;2024-02-14T09:39:04;20.17;;;12.93;;
35120;SDS011;21297;52.008;4.576;2024-02-14T09:41:54;18.40;;;12.20;;
35120;SDS011;21297;52.008;4.576;2024-02-14T09:44:45;20.17;;;11.95;;
35120;SDS011;21297;52.008;4.576;2024-02-14T09:47:32;18.63;;;13.32;;
35120;SDS011;21297;52.008;4.576;2024-02-14T09:50:19;20.05;;;13.25;;
35120;SDS011;21297;52.008;4.576;2024-02-14T09:53:06;18.67;;;13.23;;
35120;SDS011;21297;52.008;4.576;2024-02-14T09:55:52;19.92;;;12.80;;
35120;SDS011;21297;52.008;4.576;2024-02-14T09:58:40;18.88;;;12.15;;
35120;SDS011;21297;52.008;4.576;2024-02-14T10:01:26;17.83;;;11.95;;
35120;SDS011;21297;52.008;4.576;2024-02-14T10:04:12;14.82;;;10.35;;
35120;SDS011;21297;52.008;4.576;2024-02-14T10:06:57;14.90;;;10.45;;
35120;SDS011;21297;52.008;4.576;2024-02-14T10:09:43;16.25;;;10.60;;
35120;SDS011;21297;52.008;4.576;2024-02-14T10:12:29;14.95;;;9.30;;
35120;SDS011;21297;52.008;4.576;2024-02-14T10:15:15;16.98;;;10.35;;
35120;SDS011;21297;52.008;4.576;2024-02-14T10:18:01;16.13;;;9.45;;
35120;SDS011;21297;52.008;4.576;2024-02-14T10:20:55;14.18;;;8.73;;
35120;SDS011;21297;52.008;4.576;2024-02-14T10:23:41;12.65;;;8.38;;
35120;SDS011;21297;52.008;4.576;2024-02-14T10:26:27;11.88;;;8.32;;
35120;SDS011;21297;52.008;4.576;2024-02-14T10:29:15;11.40;;;7.68;;
35120;SDS011;21297;52.008;4.576;2024-02-14T10:32:01;11.52;;;7.35;;
35120;SDS011;21297;52.008;4.576;2024-02-14T10:34:46;13.05;;;7.40;;
35120;SDS011;21297;52.008;4.576;2024-02-14T10:37:32;10.10;;;6.97;;
35120;SDS011;21297;52.008;4.576;2024-02-14T10:40:18;13.05;;;7.32;;
35120;SDS011;21297;52.008;4.576;2024-02-14T10:43:09;11.57;;;7.03;;
35120;SDS011;21297;52.008;4.576;2024-02-14T10:45:55;10.82;;;7.97;;
35120;SDS011;21297;52.008;4.576;2024-02-14T10:48:44;13.90;;;8.13;;
35120;SDS011;21297;52.008;4.576;2024-02-14T10:51:33;12.55;;;8.60;;
35120;SDS011;21297;52.008;4.576;2024-02-14T10:54:20;15.30;;;9.20;;
35120;SDS011;21297;52.008;4.576;2024-02-14T10:57:06;14.93;;;10.07;;
35120;SDS011;21297;52.008;4.576;2024-02-14T10:59:57;15.30;;;10.02;;
35120;SDS011;21297;52.008;4.576;2024-02-14T11:02:50;15.13;;;9.32;;
35120;SDS011;21297;52.008;4.576;2024-02-14T11:05:47;14.77;;;10.70;;
35120;SDS011;21297;52.008;4.576;2024-02-14T11:08:33;13.90;;;10.43;;
35120;SDS011;21297;52.008;4.576;2024-02-14T11:11:20;16.35;;;10.68;;
35120;SDS011;21297;52.008;4.576;2024-02-14T11:14:06;17.50;;;11.43;;
35120;SDS011;21297;52.008;4.576;2024-02-14T11:16:52;20.52;;;12.32;;
35120;SDS011;21297;52.008;4.576;2024-02-14T11:19:37;18.90;;;12.68;;
35120;SDS011;21297;52.008;4.576;2024-02-14T11:22:23;16.27;;;10.18;;
35120;SDS011;21297;52.008;4.576;2024-02-14T11:25:14;21.05;;;10.98;;
35120;SDS011;21297;52.008;4.576;2024-02-14T11:28:01;14.65;;;9.75;;
35120;SDS011;21297;52.008;4.576;2024-02-14T11:31:01;13.80;;;8.88;;
35120;SDS011;21297;52.008;4.576;2024-02-14T11:33:49;12.18;;;8.85;;
35120;SDS011;21297;52.008;4.576;2024-02-14T11:36:35;12.20;;;8.63;;
35120;SDS011;21297;52.008;4.576;2024-02-14T11:39:21;15.32;;;8.70;;
35120;SDS011;21297;52.008;4.576;2024-02-14T11:42:07;17.23;;;8.02;;
35120;SDS011;21297;52.008;4.576;2024-02-14T11:44:54;13.57;;;8.70;;
35120;SDS011;21297;52.008;4.576;2024-02-14T11:47:43;14.02;;;8.20;;
35120;SDS011;21297;52.008;4.576;2024-02-14T11:50:29;12.60;;;8.25;;
35120;SDS011;21297;52.008;4.576;2024-02-14T11:53:16;13.88;;;7.53;;
35120;SDS011;21297;52.008;4.576;2024-02-14T11:56:04;14.27;;;8.05;;
35120;SDS011;21297;52.008;4.576;2024-02-14T11:58:51;13.13;;;7.88;;
35120;SDS011;21297;52.008;4.576;2024-02-14T12:01:37;11.25;;;7.57;;
35120;SDS011;21297;52.008;4.576;2024-02-14T12:04:24;11.15;;;7.45;;
35120;SDS011;21297;52.008;4.576;2024-02-14T12:07:10;11.93;;;7.93;;
35120;SDS011;21297;52.008;4.576;2024-02-14T12:09:56;13.32;;;7.82;;
35120;SDS011;21297;52.008;4.576;2024-02-14T12:12:44;12.55;;;8.73;;
35120;SDS011;21297;52.008;4.576;2024-02-14T12:15:36;12.35;;;9.10;;
35120;SDS011;21297;52.008;4.576;2024-02-14T12:18:22;12.10;;;8.63;;
35120;SDS011;21297;52.008;4.576;2024-02-14T12:21:08;12.60;;;8.35;;
35120;SDS011;21297;52.008;4.576;2024-02-14T12:24:00;12.98;;;9.20;;
35120;SDS011;21297;52.008;4.576;2024-02-14T12:26:46;12.88;;;8.82;;
35120;SDS011;21297;52.008;4.576;2024-02-14T12:29:34;12.77;;;7.95;;
35120;SDS011;21297;52.008;4.576;2024-02-14T12:32:21;12.27;;;8.10;;
35120;SDS011;21297;52.008;4.576;2024-02-14T12:35:07;13.25;;;7.47;;
35120;SDS011;21297;52.008;4.576;2024-02-14T12:37:52;9.57;;;6.68;;
35120;SDS011;21297;52.008;4.576;2024-02-14T12:40:39;9.95;;;6.50;;
35120;SDS011;21297;52.008;4.576;2024-02-14T12:43:32;11.38;;;7.40;;
35120;SDS011;21297;52.008;4.576;2024-02-14T12:46:18;11.57;;;7.05;;
35120;SDS011;21297;52.008;4.576;2024-02-14T12:49:03;12.13;;;7.63;;
35120;SDS011;21297;52.008;4.576;2024-02-14T12:51:49;12.52;;;7.68;;
35120;SDS011;21297;52.008;4.576;2024-02-14T12:54:35;13.02;;;8.73;;
35120;SDS011;21297;52.008;4.576;2024-02-14T12:57:20;13.52;;;8.77;;
35120;SDS011;21297;52.008;4.576;2024-02-14T13:00:08;12.70;;;8.88;;
35120;SDS011;21297;52.008;4.576;2024-02-14T13:02:54;15.48;;;10.23;;
35120;SDS011;21297;52.008;4.576;2024-02-14T13:05:39;15.55;;;11.40;;
35120;SDS011;21297;52.008;4.576;2024-02-14T13:08:26;18.65;;;12.95;;
35120;SDS011;21297;52.008;4.576;2024-02-14T13:11:12;17.60;;;12.45;;
35120;SDS011;21297;52.008;4.576;2024-02-14T13:13:59;19.48;;;13.20;;
35120;SDS011;21297;52.008;4.576;2024-02-14T13:16:45;22.60;;;16.13;;
35120;SDS011;21297;52.008;4.576;2024-02-14T13:19:31;23.02;;;16.27;;
35120;SDS011;21297;52.008;4.576;2024-02-14T13:22:16;27.20;;;17.15;;
35120;SDS011;21297;52.008;4.576;2024-02-14T13:25:02;22.10;;;15.98;;
35120;SDS011;21297;52.008;4.576;2024-02-14T13:27:50;20.08;;;14.23;;
35120;SDS011;21297;52.008;4.576;2024-02-14T13:30:35;18.00;;;13.38;;
35120;SDS011;21297;52.008;4.576;2024-02-14T13:33:21;18.25;;;13.32;;
35120;SDS011;21297;52.008;4.576;2024-02-14T13:36:07;19.77;;;13.52;;
35120;SDS011;21297;52.008;4.576;2024-02-14T13:38:54;16.83;;;12.60;;
35120;SDS011;21297;52.008;4.576;2024-02-14T13:41:40;17.13;;;12.80;;
35120;SDS011;21297;52.008;4.576;2024-02-14T13:44:26;16.27;;;11.82;;
35120;SDS011;21297;52.008;4.576;2024-02-14T13:47:11;16.75;;;12.07;;
35120;SDS011;21297;52.008;4.576;2024-02-14T13:49:57;13.85;;;8.85;;
35120;SDS011;21297;52.008;4.576;2024-02-14T13:52:43;14.18;;;10.02;;
35120;SDS011;21297;52.008;4.576;2024-02-14T13:55:29;14.30;;;8.50;;
35120;SDS011;21297;52.008;4.576;2024-02-14T13:58:15;12.63;;;8.20;;
35120;SDS011;21297;52.008;4.576;2024-02-14T14:01:02;13.73;;;8.05;;
35120;SDS011;21297;52.008;4.576;2024-02-14T14:03:47;12.90;;;7.68;;
35120;SDS011;21297;52.008;4.576;2024-02-14T14:06:35;11.55;;;7.97;;
35120;SDS011;21297;52.008;4.576;2024-02-14T14:09:21;11.68;;;7.60;;
35120;SDS011;21297;52.008;4.576;2024-02-14T14:12:07;20.40;;;7.47;;
35120;SDS011;21297;52.008;4.576;2024-02-14T14:14:52;12.38;;;6.45;;
35120;SDS011;21297;52.008;4.576;2024-02-14T14:17:38;10.63;;;6.35;;
35120;SDS011;21297;52.008;4.576;2024-02-14T14:20:24;9.77;;;7.07;;
35120;SDS011;21297;52.008;4.576;2024-02-14T14:23:09;9.38;;;6.22;;
35120;SDS011;21297;52.008;4.576;2024-02-14T14:25:55;10.90;;;5.60;;
35120;SDS011;21297;52.008;4.576;2024-02-14T14:28:41;7.43;;;4.60;;
35120;SDS011;21297;52.008;4.576;2024-02-14T14:31:27;8.82;;;4.65;;
35120;SDS011;21297;52.008;4.576;2024-02-14T14:34:13;8.20;;;4.30;;
35120;SDS011;21297;52.008;4.576;2024-02-14T14:36:59;8.43;;;4.10;;
35120;SDS011;21297;52.008;4.576;2024-02-14T14:39:45;6.30;;;3.60;;
35120;SDS011;21297;52.008;4.576;2024-02-14T14:42:30;6.82;;;3.40;;
35120;SDS011;21297;52.008;4.576;2024-02-14T14:45:16;4.93;;;2.97;;
35120;SDS011;21297;52.008;4.576;2024-02-14T14:48:02;6.53;;;2.97;;
35120;SDS011;21297;52.008;4.576;2024-02-14T14:50:48;5.35;;;2.80;;
35120;SDS011;21297;52.008;4.576;2024-02-14T14:53:33;5.78;;;3.13;;
35120;SDS011;21297;52.008;4.576;2024-02-14T14:56:20;5.88;;;2.58;;
35120;SDS011;21297;52.008;4.576;2024-02-14T14:59:10;5.72;;;2.85;;
35120;SDS011;21297;52.008;4.576;2024-02-14T15:01:56;6.03;;;2.78;;
35120;SDS011;21297;52.008;4.576;2024-02-14T15:04:42;8.07;;;3.13;;
35120;SDS011;21297;52.008;4.576;2024-02-14T15:07:29;7.03;;;3.30;;
35120;SDS011;21297;52.008;4.576;2024-02-14T15:10:15;6.07;;;3.03;;
35120;SDS011;21297;52.008;4.576;2024-02-14T15:13:01;7.45;;;3.17;;
35120;SDS011;21297;52.008;4.576;2024-02-14T15:15:46;8.40;;;3.88;;
35120;SDS011;21297;52.008;4.576;2024-02-14T15:18:32;6.60;;;2.90;;
35120;SDS011;21297;52.008;4.576;2024-02-14T15:21:18;8.02;;;2.83;;
35120;SDS011;21297;52.008;4.576;2024-02-14T15:24:03;9.60;;;2.45;;
35120;SDS011;21297;52.008;4.576;2024-02-14T15:26:49;4.35;;;1.20;;
35120;SDS011;21297;52.008;4.576;2024-02-14T15:29:35;6.93;;;1.17;;
35120;SDS011;21297;52.008;4.576;2024-02-14T15:32:39;5.13;;;1.15;;
35120;SDS011;21297;52.008;4.576;2024-02-14T15:35:43;10.13;;;1.92;;
35120;SDS011;21297;52.008;4.576;2024-02-14T15:38:29;8.43;;;2.00;;
35120;SDS011;21297;52.008;4.576;2024-02-14T15:41:14;11.20;;;2.00;;
35120;SDS011;21297;52.008;4.576;2024-02-14T15:44:00;12.57;;;2.40;;
35120;SDS011;21297;52.008;4.576;2024-02-14T15:46:46;14.65;;;3.10;;
35120;SDS011;21297;52.008;4.576;2024-02-14T15:49:31;18.48;;;3.17;;
35120;SDS011;21297;52.008;4.576;2024-02-14T15:52:19;17.35;;;3.55;;
35120;SDS011;21297;52.008;4.576;2024-02-14T15:55:05;13.02;;;3.45;;
35120;SDS011;21297;52.008;4.576;2024-02-14T15:57:53;15.52;;;3.95;;
35120;SDS011;21297;52.008;4.576;2024-02-14T16:00:39;11.13;;;3.67;;
35120;SDS011;21297;52.008;4.576;2024-02-14T16:03:24;13.88;;;5.07;;
35120;SDS011;21297;52.008;4.576;2024-02-14T16:06:10;15.95;;;4.00;;
35120;SDS011;21297;52.008;4.576;2024-02-14T16:08:56;12.80;;;4.00;;
35120;SDS011;21297;52.008;4.576;2024-02-14T16:11:43;11.55;;;4.28;;
35120;SDS011;21297;52.008;4.576;2024-02-14T16:14:30;16.67;;;4.43;;
35120;SDS011;21297;52.008;4.576;2024-02-14T16:17:17;12.13;;;4.40;;